createdAt,value
2023-06-17T00:01:56.030Z,15.957152095526771
2023-06-17T00:12:26.465Z,15.976339752299324
2023-06-17T00:18:46.880Z,15.837381767349507
2023-06-17T00:29:23.563Z,15.797301552048488
2023-06-17T00:41:13.158Z,15.82781537416388
2023-06-17T00:47:34.656Z,15.900584631061863
2023-06-17T00:53:55.330Z,16.016536893812702
2023-06-17T01:00:15.955Z,16.08172880957359
2023-06-17T01:06:36.594Z,16.008304373954847
2023-06-17T01:12:56.245Z,15.962326243729107
2023-06-17T01:19:16.037Z,15.985086355560219
2023-06-17T01:25:36.497Z,16.005473322533454
2023-06-17T01:41:10.407Z,15.991958873327768
2023-06-17T01:47:30.920Z,16.031132420568575
2023-06-17T01:55:45.201Z,15.885162128971572
2023-06-17T02:07:45.434Z,15.742241717182267
2023-06-17T02:14:05.386Z,15.63249830163043
2023-06-17T02:20:25.182Z,15.70421195652174
2023-06-17T02:32:20.011Z,15.631506061872928
2023-06-17T02:45:10.733Z,15.825809991638803
2023-06-17T02:51:30.886Z,15.867614705267558
2023-06-17T02:57:51.527Z,15.785068718645485
2023-06-17T03:06:16.613Z,15.868544235994973
2023-06-17T03:12:36.408Z,15.890303616220743
2023-06-17T03:18:56.840Z,15.83618768290134
2023-06-17T03:30:31.302Z,15.883496420359524
2023-06-17T03:36:51.467Z,15.91871015363714
2023-06-17T03:43:15.518Z,15.906240854933108
2023-06-17T03:49:38.488Z,15.894855246655537
2023-06-17T03:56:00.515Z,15.730519701086955
2023-06-17T04:02:23.179Z,15.636384955058528
2023-06-17T04:08:46.316Z,15.703494068770906
2023-06-17T04:15:08.700Z,15.562076060827751
2023-06-17T04:22:02.527Z,15.598528950668895
2023-06-17T04:32:52.825Z,15.51161358173076
2023-06-17T04:41:36.451Z,15.675641461120414
2023-06-17T04:47:59.110Z,15.643771556229096
2023-06-17T04:54:21.088Z,15.812243284908037
2023-06-17T05:04:11.728Z,15.822669967600342
2023-06-17T05:10:34.878Z,15.947386470526766
2023-06-17T05:16:57.955Z,15.819075303093658
2023-06-17T05:23:21.369Z,15.905674514005016
2023-06-17T05:34:52.771Z,16.105416492474916
2023-06-17T05:41:18.692Z,16.22775331835283
2023-06-17T05:47:41.523Z,16.239760137959856
2023-06-17T05:58:25.875Z,16.243141853051842
2023-06-17T06:10:29.804Z,16.54898359113713
2023-06-17T06:16:52.681Z,16.54857924853679
2023-06-17T06:23:15.422Z,16.381455110785943
2023-06-17T06:34:56.878Z,16.456617762332787
2023-06-17T06:42:36.669Z,16.6763600020903
2023-06-17T06:48:58.924Z,16.538980194397993
2023-06-17T06:55:22.538Z,16.697496864548516
2023-06-17T07:02:07.839Z,16.77638939694816
2023-06-17T07:15:25.319Z,16.92789114757523
2023-06-17T07:21:47.517Z,17.072233617265876
2023-06-17T07:28:10.261Z,16.999165186036773
2023-06-17T07:34:32.837Z,17.1933162625418
2023-06-17T07:40:54.799Z,17.30094128867056
2023-06-17T07:48:41.064Z,17.32628161580267
2023-06-17T08:01:17.517Z,17.203059024874584
2023-06-17T08:07:39.712Z,17.436338576505023
2023-06-17T08:14:31.096Z,17.703626019021737
2023-06-17T08:22:33.420Z,17.644655361622057
2023-06-17T08:28:56.780Z,18.0739842443562
2023-06-17T08:35:20.551Z,18.017704196279254
2023-06-17T08:43:19.190Z,18.237652853260894
2023-06-17T08:49:43.870Z,18.50595539820237
2023-06-17T08:56:08.982Z,18.51737823996655
2023-06-17T09:02:33.157Z,18.550609453386297
2023-06-17T09:08:56.670Z,19.046813597408022
2023-06-17T09:15:20.697Z,19.287152487458187
2023-06-17T09:22:21.473Z,18.971134902800994
2023-06-17T09:29:29.716Z,18.924191968018402
2023-06-17T09:40:45.981Z,20.435821880225767
2023-06-17T09:54:50.421Z,20.216280831939798
2023-06-17T10:05:18.865Z,20.698457096571918
2023-06-17T10:15:03.649Z,20.212111334657187
2023-06-17T10:21:29.146Z,21.03805980873747
2023-06-17T10:27:52.988Z,21.222583742683952
2023-06-17T10:34:17.180Z,21.412159672867887
2023-06-17T10:40:40.954Z,21.398623667433128
2023-06-17T10:47:04.585Z,21.592966137123735
2023-06-17T10:53:29.177Z,22.04231291806021
2023-06-17T11:11:41.590Z,22.56784202550167
2023-06-17T11:18:06.282Z,22.99683907295151
2023-06-17T11:26:58.369Z,22.48389161789298
2023-06-17T11:36:54.000Z,23.529903062290956
2023-06-17T11:48:52.576Z,23.48520197533447
2023-06-17T11:55:16.011Z,23.577810801630445
2023-06-17T12:01:40.200Z,23.624265781772575
2023-06-17T12:08:02.781Z,24.023325799540142
2023-06-17T12:19:45.852Z,24.129115933319394
2023-06-17T12:31:10.333Z,24.34943235263379
2023-06-17T12:37:33.220Z,24.23292616011707
2023-06-17T12:43:55.915Z,24.57401559887123
2023-06-17T12:50:18.914Z,24.565922867892986
2023-06-17T12:56:55.605Z,24.482411423494987
2023-06-17T13:03:19.077Z,24.61178995087792
2023-06-17T13:09:42.519Z,24.962782190635437
2023-06-17T13:16:05.517Z,25.284427910744164
2023-06-17T13:22:28.258Z,25.28777565844482
2023-06-17T13:28:51.564Z,25.33226640886288
2023-06-17T13:50:37.680Z,25.483715901964878
2023-06-17T13:57:00.379Z,25.395865776546817
2023-06-17T14:03:23.833Z,25.250351431856185
2023-06-17T14:12:21.808Z,25.294720030309364
2023-06-17T14:18:45.008Z,25.6206600125418
2023-06-17T14:25:07.470Z,25.913485707566895
2023-06-17T14:31:30.571Z,25.50011170045986
2023-06-17T14:37:54.032Z,25.736264762750828
2023-06-17T14:48:26.031Z,25.87465183423913
2023-06-17T14:54:50.336Z,25.531663487667245
2023-06-17T15:04:53.368Z,25.998288566053525
2023-06-17T15:11:17.959Z,25.74403610994984
2023-06-17T15:17:41.427Z,25.38368062813546
2023-06-17T15:24:36.288Z,25.57714059887124
2023-06-17T15:36:35.546Z,25.54228091032609
2023-06-17T15:42:59.668Z,25.568521373327748
2023-06-17T15:59:22.155Z,25.504290996028413
2023-06-17T16:05:45.231Z,24.937299461747486
2023-06-17T16:12:08.540Z,25.069350961538465
2023-06-17T16:20:29.960Z,25.245523489757527
2023-06-17T16:31:36.320Z,25.05411201400501
2023-06-17T16:38:00.671Z,25.01333024142976
2023-06-17T16:44:24.791Z,24.998710545568564
2023-06-17T16:50:49.767Z,24.869961721362866
2023-06-17T16:57:13.018Z,24.824487223035128
2023-06-17T17:03:36.769Z,24.64374412102842
2023-06-17T17:10:00.417Z,24.418503736413037
2023-06-17T17:16:23.660Z,24.340817699623766
2023-06-17T17:28:38.764Z,24.104731918896317
2023-06-17T17:35:01.861Z,24.00093214360367
2023-06-17T17:41:24.899Z,23.947082070443145
2023-06-17T17:59:28.313Z,23.48025645380436
2023-06-17T18:07:01.989Z,23.38301042537629
2023-06-17T18:13:24.435Z,23.179639161789275
2023-06-17T18:19:47.123Z,22.961125627090297
2023-06-17T18:26:09.477Z,22.773952236622083
2023-06-17T18:32:31.372Z,22.59214242788462
2023-06-17T18:38:54.343Z,22.457217417433096
2023-06-17T18:45:17.494Z,22.30265729515046
2023-06-17T18:51:41.219Z,22.15253971571906
2023-06-17T19:04:50.921Z,21.867774090719028
2023-06-17T19:18:38.190Z,21.73959160744146
2023-06-17T19:25:01.070Z,21.61053968959029
2023-06-17T19:31:24.781Z,21.454170803720732
2023-06-17T19:42:38.301Z,21.33716228574414
2023-06-17T19:48:59.055Z,21.194601144439794
2023-06-17T19:55:21.639Z,20.999675350125422
2023-06-17T20:08:30.077Z,20.76265807901334
2023-06-17T20:14:51.003Z,20.526263325668886
2023-06-17T20:27:43.748Z,20.349184129389606
2023-06-17T20:34:04.399Z,20.220384354096993
2023-06-17T20:44:11.553Z,20.035478286998327
2023-06-17T20:50:32.212Z,19.952897026546776
2023-06-17T20:56:52.901Z,19.818253553511692
2023-06-17T21:03:13.973Z,19.646658131270883
2023-06-17T21:09:34.908Z,19.381291152801023
2023-06-17T21:22:07.019Z,19.170582932692298
2023-06-17T21:28:32.392Z,19.144158261914704
2023-06-17T21:38:19.491Z,18.97563100961538
2023-06-17T21:50:51.296Z,18.7819985890468
2023-06-17T21:57:12.733Z,18.62098727529264
2023-06-17T22:07:23.643Z,18.512424226588625
2023-06-17T22:19:38.647Z,18.222954771112
2023-06-17T22:33:28.719Z,17.940280753553495
2023-06-17T22:44:47.415Z,17.822750966764247
2023-06-17T22:51:08.116Z,17.913875679347846
2023-06-17T22:57:28.468Z,17.98011470526756
2023-06-17T23:03:49.300Z,17.96276651337795
2023-06-17T23:10:56.769Z,17.837023803302685
2023-06-17T23:17:17.525Z,17.820101510242463
2023-06-17T23:23:37.981Z,17.66710127508358
2023-06-17T23:42:29.146Z,17.376797658862877
2023-06-17T23:48:50.423Z,17.26599668164719
2023-06-17T23:55:11.931Z,17.168789846362877
